createdAt,value
2022-09-18T00:03:21.371Z,957.99
2022-09-18T00:18:23.295Z,957.99
2022-09-18T00:33:25.244Z,957.9
2022-09-18T00:48:27.180Z,957.87
2022-09-18T01:03:29.157Z,957.92
2022-09-18T01:18:31.123Z,957.91
2022-09-18T01:33:32.956Z,957.95
2022-09-18T01:48:34.972Z,958.01
2022-09-18T02:03:37.017Z,958.14
2022-09-18T02:18:38.917Z,958.21
2022-09-18T02:33:40.819Z,958.44
2022-09-18T02:48:42.769Z,958.51
2022-09-18T03:03:44.814Z,958.6
2022-09-18T03:18:46.737Z,958.7
2022-09-18T03:33:48.672Z,958.85
2022-09-18T03:48:50.713Z,958.86
2022-09-18T04:03:52.713Z,958.91
2022-09-18T04:18:54.651Z,959.04
2022-09-18T04:33:56.612Z,959.19
2022-09-18T04:48:58.567Z,959.15
2022-09-18T05:04:00.480Z,959.25
2022-09-18T05:19:02.425Z,959.24
2022-09-18T05:34:04.328Z,959.32
2022-09-18T05:49:06.434Z,959.39
2022-09-18T06:04:08.372Z,959.52
2022-09-18T06:19:10.339Z,959.54
2022-09-18T06:34:12.216Z,959.61
2022-09-18T06:49:14.205Z,959.73
2022-09-18T07:04:16.086Z,959.81
2022-09-18T07:19:17.991Z,959.88
2022-09-18T07:34:19.911Z,959.99
2022-09-18T07:49:21.834Z,960.14
2022-09-18T08:04:23.766Z,960.2
2022-09-18T08:19:26.308Z,960.33
2022-09-18T08:34:28.230Z,960.29
2022-09-18T08:49:30.167Z,960.55
2022-09-18T09:04:32.108Z,960.57
2022-09-18T09:19:34.067Z,960.62
2022-09-18T09:34:36.002Z,960.68
2022-09-18T09:49:37.931Z,960.74
2022-09-18T10:04:39.867Z,960.78
2022-09-18T10:19:41.790Z,960.68
2022-09-18T10:34:43.699Z,960.79
2022-09-18T10:49:45.613Z,960.77
2022-09-18T11:04:47.604Z,960.89
2022-09-18T11:19:49.593Z,960.91
2022-09-18T11:34:51.785Z,960.97
2022-09-18T11:49:53.686Z,960.84
2022-09-18T12:04:55.625Z,960.9
2022-09-18T12:19:56.219Z,961.05
2022-09-18T12:34:58.115Z,960.79
2022-09-18T12:50:00.679Z,960.66
2022-09-18T13:05:02.608Z,960.66
2022-09-18T13:20:05.263Z,960.85
2022-09-18T13:35:07.139Z,960.87
2022-09-18T13:50:09.086Z,960.88
2022-09-18T14:05:11.698Z,961.08
2022-09-18T14:20:13.606Z,961.02
2022-09-18T14:35:15.591Z,961.06
2022-09-18T14:50:17.533Z,961.33
2022-09-18T15:05:19.444Z,961.26
2022-09-18T15:20:21.389Z,961.34
2022-09-18T15:35:23.323Z,961.34
2022-09-18T15:50:25.278Z,961.38
2022-09-18T16:05:27.195Z,961.25
2022-09-18T16:20:29.112Z,960.98
2022-09-18T16:35:31.034Z,961.06
2022-09-18T16:50:32.951Z,960.96
2022-09-18T17:05:34.888Z,960.85
2022-09-18T17:20:36.798Z,960.8
2022-09-18T17:35:38.713Z,960.69
2022-09-18T17:50:40.638Z,960.57
2022-09-18T18:05:42.543Z,960.26
2022-09-18T18:20:44.466Z,960.15
2022-09-18T18:35:46.448Z,959.91
2022-09-18T18:50:48.331Z,959.78
2022-09-18T19:05:50.279Z,959.56
2022-09-18T19:20:52.397Z,959.25
2022-09-18T19:35:54.314Z,959
2022-09-18T19:50:56.243Z,958.9
2022-09-18T20:05:58.148Z,958.77
2022-09-18T20:21:00.137Z,958.73
2022-09-18T20:36:02.051Z,958.49
2022-09-18T20:51:04.015Z,958.4
2022-09-18T21:06:21.360Z,958.23
2022-09-18T21:21:23.607Z,958.09
2022-09-18T21:36:25.513Z,957.78
2022-09-18T21:51:27.458Z,957.52
2022-09-18T22:06:29.413Z,957.46
2022-09-18T22:21:31.318Z,957.29
2022-09-18T22:36:33.280Z,956.99
2022-09-18T22:51:35.163Z,956.83
2022-09-18T23:06:37.108Z,956.64
2022-09-18T23:21:39.069Z,956.41
2022-09-18T23:36:40.967Z,956.27
2022-09-18T23:51:42.951Z,956.15
